• Join FlightAware (Why Join?)
  • Login
  • US Flag 
04:16PM EDT


 

Airport Tracker/Info


-or-


 

Live Flight TrackerFlight Track Log ✈ FDX3613 ✈ 30-Apr-2013 ✈ KSAN - KIND

Flight Track Log - Related Links

Times and Time Zones

All times are in EDT time to prevent confusion due to time zone crossing. See the FDX3613 flight status page for this flight to view local times or setup timezone preferences in your user account.

Time Position Orientation Groundspeed Altitude Reporting Facility
EDT Latitude Longitude Course Direction KTS MPH feet Rate Location/Type
09:47AM 32.7480 -117.2460 285° West 198 228 1,600  Level FlightAware
09:47AM 32.7530 -117.2710 283° West 233 268 2,000 1,800 Climbing FlightAware
09:48AM 32.7410 -117.3220 254° West 247 284 3,400 2,040 Climbing FlightAware
09:48AM 32.7230 -117.3270 193° South 261 300 3,900 2,040 Climbing FlightAware
09:49AM 32.6950 -117.2920 134° Southeast 281 323 5,100 2,280 Climbing FlightAware
09:49AM 32.6850 -117.2540 107° East 282 325 6,200 2,580 Climbing FlightAware
09:50AM 32.6690 -117.1970 108° East 292 336 7,700 2,460 Climbing FlightAware
09:50AM 32.6570 -117.1510 107° East 298 343 8,900 2,400 Climbing FlightAware
09:50AM 32.6450 -117.1080 108° East 304 350 9,900 1,200 Climbing FlightAware
09:51AM 32.6320 -117.0600 108° East 335 386 10,200 360 Climbing FlightAware
09:52AM 32.6090 -116.9770 108° East 361 415 10,400 120 Climbing FlightAware
09:52AM 32.5930 -116.9130 107° East 361 415 10,400  Level FlightAware
09:53AM 32.5720 -116.8320 107° East 361 415 10,400 2,940 Level FlightAware
09:54AM 32.6420 -116.6650 64° Northeast 15,500 5,400 Climbing FlightAware
09:54AM 32.6440 -116.6480 82° East 406 467 15,800 780 Climbing FlightAware
09:55AM 32.6570 -116.5130 83° East 412 474 16,600 420 Climbing FlightAware
09:56AM 32.6650 -116.4360 83° East 412 474 16,600  Level FlightAware
09:57AM 32.6730 -116.3600 83° East 412 474 16,600  Level FlightAware
09:57AM 32.6810 -116.2830 83° East 412 474 16,600  Level FlightAware
09:58AM 32.6890 -116.2070 83° East 412 474 16,600  Level FlightAware
09:59AM 32.6970 -116.1300 83° East 412 474 16,600 4,680 Level FlightAware
10:00AM 32.7131 -115.9094 83° East 443 510 23,700 4,500 Climbing Los Angeles Center
10:01AM 32.7289 -115.7311 84° East 454 522 25,100 1,200 Climbing Los Angeles Center
10:02AM 32.7422 -115.5803 84° East 461 531 26,200 1,020 Climbing Los Angeles Center
10:03AM 32.7514 -115.4269 86° East 468 539 27,200 960 Climbing Los Angeles Center
10:04AM 32.7550 -115.2700 88° East 475 547 28,300 960 Climbing Los Angeles Center
10:05AM 32.7603 -115.1119 88° East 477 549 29,200 780 Climbing Los Angeles Center
10:06AM 32.7636 -114.9525 89° East 483 556 29,900 1,020 Climbing Los Angeles Center
10:07AM 32.7664 -114.7919 89° East 485 558 31,300 1,380 Climbing Los Angeles Center
10:08AM 32.7703 -114.6042 89° East 474 545 32,800 1,080 Climbing Los Angeles Center
10:09AM 32.7717 -114.4508 89° East 465 535 33,600 780 Climbing Los Angeles Center
10:10AM 32.7739 -114.2989 89° East 461 531 34,400 660 Climbing Los Angeles Center
10:11AM 32.7758 -114.1478 89° East 457 526 35,000 360 Climbing Los Angeles Center
10:11AM 32.7778 -114.0672 88° East 458 527 35,000  Level Albuquerque Center
10:17AM 32.8830 -113.2150 88° East 455 524 35,000  Level FlightAware
10:18AM 32.8990 -113.1020 80° East 455 524 35,000  Level FlightAware
10:18AM 32.9120 -113.0030 81° East 455 524 35,000  Level FlightAware
10:19AM 32.9250 -112.9060 81° East 454 522 35,000  Level FlightAware
10:20AM 32.9410 -112.7930 80° East 454 522 35,000  Level FlightAware
10:21AM 32.9600 -112.6960 77° East 455 524 35,000  Level FlightAware
10:21AM 33.0070 -112.6010 59° Northeast 456 525 35,000  Level FlightAware
10:22AM 33.0610 -112.5230 50° Northeast 457 526 35,000  Level FlightAware
10:23AM 33.1110 -112.4480 51° Northeast 457 526 35,000  Level FlightAware
10:23AM 33.1740 -112.3550 51° Northeast 458 527 35,000  Level FlightAware
10:24AM 33.2280 -112.2750 51° Northeast 459 528 35,000  Level FlightAware
10:25AM 33.2810 -112.1970 51° Northeast 460 529 35,000  Level FlightAware
10:25AM 33.3400 -112.1080 52° Northeast 459 528 35,000  Level FlightAware
10:26AM 33.3940 -112.0290 51° Northeast 461 531 35,000  Level FlightAware
10:27AM 33.4470 -111.9340 56° Northeast 460 529 35,000  Level FlightAware
10:28AM 33.4800 -111.8400 67° East 461 531 35,000  Level FlightAware
10:28AM 33.5200 -111.7320 66° East 461 531 35,000  Level FlightAware
10:29AM 33.5540 -111.6410 66° East 462 532 35,000  Level FlightAware
10:30AM 33.5920 -111.5350 67° East 463 533 35,000  Level FlightAware
10:30AM 33.6250 -111.4400 67° East 464 534 35,000  Level FlightAware
10:31AM 33.6600 -111.3460 66° East 464 534 35,000  Level FlightAware
10:32AM 33.6980 -111.2390 67° East 465 535 35,000  Level FlightAware
10:32AM 33.7330 -111.1400 67° East 465 535 35,000  Level FlightAware
10:33AM 33.7660 -111.0490 66° East 465 535 35,000  Level FlightAware
10:34AM 33.8020 -110.9490 67° East 466 536 35,000  Level FlightAware
10:34AM 33.8300 -110.8700 67° East 466 536 35,000  Level FlightAware
10:35AM 33.8650 -110.7690 67° East 466 536 35,000  Level FlightAware
10:36AM 33.9050 -110.6560 67° East 466 536 35,000  Level FlightAware
10:37AM 33.9390 -110.5610 67° East 466 536 35,000  Level FlightAware
10:37AM 33.9730 -110.4610 68° East 465 535 35,000  Level FlightAware
10:38AM 34.0020 -110.3800 67° East 465 535 35,000  Level FlightAware
10:39AM 34.0380 -110.2780 67° East 465 535 35,000  Level FlightAware
10:39AM 34.0660 -110.1970 67° East 465 535 35,000  Level FlightAware
10:40AM 34.0950 -110.1160 67° East 465 535 35,000  Level FlightAware
10:41AM 34.1230 -110.0340 68° East 465 535 35,000  Level FlightAware
10:41AM 34.1520 -109.9530 67° East 465 535 35,000  Level FlightAware
10:42AM 34.1880 -109.8510 67° East 465 535 35,000  Level FlightAware
10:43AM 34.2090 -109.7900 67° East 465 535 35,000  Level FlightAware
10:44AM 34.2450 -109.6880 67° East 465 535 35,000  Level FlightAware
10:44AM 34.2740 -109.6070 67° East 465 535 35,000  Level FlightAware
10:45AM 34.3020 -109.5250 68° East 465 535 35,000  Level FlightAware
10:46AM 34.3380 -109.4230 67° East 465 535 35,000  Level FlightAware
10:46AM 34.3660 -109.3420 67° East 465 535 35,000  Level FlightAware
10:49AM 34.5460 -108.7000 71° East 473 544 35,000  Level FlightAware
10:50AM 34.5740 -108.5970 72° East 471 542 35,000  Level FlightAware
10:51AM 34.6020 -108.4970 71° East 470 541 35,000  Level FlightAware
10:51AM 34.6290 -108.3990 71° East 470 541 35,000  Level FlightAware
10:52AM 34.6580 -108.2890 72° East 469 540 35,000  Level FlightAware
10:53AM 34.6890 -108.1740 72° East 468 539 35,000  Level FlightAware
10:53AM 34.7160 -108.0740 72° East 468 539 35,000  Level FlightAware
10:54AM 34.7430 -107.9730 72° East 470 541 35,000  Level FlightAware
10:55AM 34.7720 -107.8630 72° East 472 543 35,000  Level FlightAware
10:56AM 34.7990 -107.7610 72° East 473 544 35,000  Level FlightAware
10:56AM 34.8250 -107.6600 73° East 474 545 35,000  Level FlightAware
10:57AM 34.8560 -107.5430 72° East 476 548 35,000  Level FlightAware
10:58AM 34.8830 -107.4400 72° East 478 550 35,000 60 Level FlightAware
10:58AM 34.9130 -107.3270 72° East 480 552 35,100 60 Climbing FlightAware
10:59AM 34.9400 -107.2210 73° East 479 551 35,100 -120 Level FlightAware
11:00AM 34.9700 -107.1060 72° East 477 549 35,000 -120 Descending FlightAware
11:00AM 34.9960 -107.0030 73° East 476 548 35,000  Level FlightAware
11:01AM 35.0250 -106.8900 73° East 476 548 35,000  Level FlightAware
11:02AM 35.0540 -106.7890 71° East 473 544 35,000  Level FlightAware
11:03AM 35.0910 -106.6900 65° Northeast 472 543 35,000  Level FlightAware
11:03AM 35.1320 -106.5810 65° Northeast 470 541 35,000  Level FlightAware
11:04AM 35.1680 -106.4840 66° East 470 541 35,000  Level FlightAware
11:05AM 35.2050 -106.3850 65° Northeast 471 542 35,000  Level FlightAware
11:05AM 35.2440 -106.2800 66° East 472 543 35,000  Level FlightAware
11:06AM 35.2800 -106.1830 66° East 473 544 35,000  Level FlightAware
11:07AM 35.3160 -106.0850 66° East 476 548 35,000 60 Level FlightAware
11:07AM 35.3540 -105.9790 66° East 477 549 35,100 60 Climbing FlightAware
11:08AM 35.3920 -105.8770 65° Northeast 479 551 35,100  Level FlightAware
11:09AM 35.4280 -105.7760 66° East 477 549 35,100 -120 Level FlightAware
11:09AM 35.4620 -105.6820 66° East 476 548 35,000 -120 Descending FlightAware
11:10AM 35.4990 -105.5810 66° East 476 548 35,000  Level FlightAware
11:11AM 35.5290 -105.4970 66° East 476 548 35,000  Level FlightAware
11:12AM 35.5670 -105.3920 66° East 476 548 35,000  Level FlightAware
11:12AM 35.5980 -105.3080 66° East 476 548 35,000  Level FlightAware
11:13AM 35.6280 -105.2240 66° East 476 548 35,000  Level FlightAware
11:14AM 35.6590 -105.1400 66° East 476 548 35,000  Level FlightAware
11:14AM 35.6890 -105.0550 66° East 476 548 35,000  Level FlightAware
11:15AM 35.7200 -104.9710 66° East 476 548 35,000  Level FlightAware
11:16AM 35.7580 -104.8660 66° East 476 548 35,000  Level FlightAware
11:17AM 35.7880 -104.7810 66° East 476 548 35,000  Level FlightAware
11:17AM 35.8180 -104.6970 66° East 476 548 35,000  Level FlightAware
11:18AM 35.8490 -104.6130 65° Northeast 476 548 35,000  Level FlightAware
11:19AM 35.8870 -104.5070 66° East 476 548 35,000  Level FlightAware
11:19AM 35.9100 -104.4440 66° East 476 548 35,000  Level FlightAware
11:20AM 35.9969 -104.1694 66° East 476 548 35,000  Level Albuquerque Center
11:21AM 36.0494 -104.0167 67° East 477 549 35,000  Level Albuquerque Center
11:22AM 36.1014 -103.8650 67° East 475 547 35,000  Level Albuquerque Center
11:23AM 36.1553 -103.7122 66° East 477 549 35,000  Level Albuquerque Center
11:24AM 36.2069 -103.5592 67° East 477 549 35,000  Level Albuquerque Center
11:25AM 36.2592 -103.4044 67° East 480 552 35,000  Level Albuquerque Center
11:26AM 36.3106 -103.2497 68° East 481 554 35,000  Level Albuquerque Center
11:27AM 36.3714 -103.0703 67° East 480 552 35,100  Climbing Albuquerque Center
11:28AM 36.4469 -102.9333 56° Northeast 474 545 35,000 -60 Descending Albuquerque Center
11:29AM 36.5247 -102.7886 56° Northeast 476 548 35,000  Level Albuquerque Center
11:30AM 36.5981 -102.6522 56° Northeast 475 547 35,000  Level Albuquerque Center
11:31AM 36.6714 -102.5139 57° Northeast 478 550 35,000  Level Albuquerque Center
11:32AM 36.7181 -102.3558 70° East 488 562 35,000  Level Albuquerque Center
11:33AM 36.7550 -102.1917 74° East 478 550 35,000  Level Albuquerque Center
11:34AM 36.7944 -102.0117 75° East 480 552 35,000  Level Albuquerque Center
11:35AM 36.8281 -101.8575 75° East 482 555 35,000  Level Albuquerque Center
11:36AM 36.8672 -101.6778 75° East 481 554 35,000  Level Albuquerque Center
11:37AM 36.9011 -101.5222 75° East 484 557 35,000  Level Albuquerque Center
11:38AM 36.9394 -101.3403 75° East 487 560 35,100  Climbing Albuquerque Center
11:39AM 36.9731 -101.1844 75° East 486 559 35,000 -60 Descending Kansas City Center
11:40AM 37.0064 -101.0283 75° East 487 560 35,000  Level Kansas City Center
11:41AM 37.0442 -100.8456 75° East 489 563 35,000  Level Kansas City Center
11:42AM 37.0767 -100.6892 75° East 488 562 35,000  Level Kansas City Center
11:43AM 37.1150 -100.5083 75° East 486 559 35,000  Level Kansas City Center
11:44AM 37.1464 -100.3539 76° East 482 555 35,000  Level Kansas City Center
11:45AM 37.1831 -100.1731 76° East 482 555 35,000  Level Kansas City Center
11:46AM 37.2139 -100.0183 76° East 481 554 35,000  Level Kansas City Center
11:47AM 37.2503 -99.8367 76° East 482 555 35,000  Level Kansas City Center
11:49AM 37.2811 -99.6808 76° East 482 555 35,000  Level Kansas City Center
11:50AM 37.3175 -99.4975 76° East 485 558 35,000  Level Kansas City Center
11:51AM 37.3525 -99.3314 75° East 493 567 35,000  Level Kansas City Center
11:52AM 37.3847 -99.1669 76° East 488 562 35,000  Level Kansas City Center
11:53AM 37.4147 -99.0017 77° East 487 560 35,000  Level Kansas City Center
11:54AM 37.4444 -98.8364 77° East 487 560 35,000  Level Kansas City Center
11:59AM 37.6230 -97.8830 77° East 481 554 35,000  Level FlightAware
12:00PM 37.6480 -97.7440 77° East 479 551 35,000  Level FlightAware
12:03PM 37.7380 -97.2360 77° East 478 550 35,000  Level FlightAware
12:04PM 37.7630 -97.0940 77° East 478 550 35,000  Level FlightAware
12:05PM 37.7880 -96.9450 78° East 477 549 35,000  Level FlightAware
12:06PM 37.8070 -96.8360 78° East 478 550 35,000  Level FlightAware
12:06PM 37.8250 -96.7330 77° East 478 550 35,000  Level FlightAware
12:08PM 37.8680 -96.4820 78° East 477 549 35,000  Level FlightAware
12:09PM 37.8960 -96.3200 78° East 477 549 35,000  Level FlightAware
12:10PM 37.8970 -96.3130 80° East 477 549 35,000  Level FlightAware
12:10PM 37.8920 -96.3350 254° West 478 550 35,000  Level FlightAware
12:11PM 37.8920 -96.3360 270° West 477 549 35,000  Level FlightAware
12:12PM 37.9690 -95.8700 78° East 477 549 35,000  Level FlightAware
12:12PM 37.9840 -95.7770 78° East 477 549 35,000  Level FlightAware
12:13PM 38.0040 -95.6610 78° East 477 549 35,000  Level FlightAware
12:14PM 38.0190 -95.5680 78° East 477 549 35,000  Level FlightAware
12:15PM 38.0350 -95.4750 78° East 477 549 35,000  Level FlightAware
12:15PM 38.0510 -95.3810 78° East 477 549 35,000  Level FlightAware
12:16PM 38.0860 -95.1350 80° East 474 545 35,000  Level FlightAware
12:17PM 38.1060 -95.0040 79° East 473 544 35,000  Level FlightAware
12:18PM 38.1200 -94.9120 79° East 473 544 35,000  Level FlightAware
12:18PM 38.1400 -94.7780 79° East 472 543 35,000  Level FlightAware
12:19PM 38.1590 -94.6530 79° East 471 542 35,000  Level FlightAware
12:20PM 38.1750 -94.5440 79° East 471 542 35,000  Level FlightAware
12:21PM 38.1940 -94.4190 79° East 471 542 35,000  Level FlightAware
12:21PM 38.2090 -94.3190 79° East 471 542 35,000  Level FlightAware
12:22PM 38.2270 -94.2020 79° East 471 542 35,000  Level FlightAware
12:23PM 38.2440 -94.0820 80° East 471 542 35,000  Level FlightAware
12:23PM 38.2590 -93.9760 80° East 472 543 35,000  Level FlightAware
12:24PM 38.2740 -93.8800 79° East 472 543 35,000  Level FlightAware
12:25PM 38.2940 -93.7380 80° East 472 543 35,000  Level FlightAware
12:25PM 38.3090 -93.6320 80° East 473 544 35,000  Level FlightAware
12:26PM 38.3260 -93.5080 80° East 474 545 35,000  Level FlightAware
12:27PM 38.3420 -93.3990 79° East 474 545 35,000 60 Level FlightAware
12:28PM 38.3580 -93.2800 80° East 473 544 35,100  Climbing FlightAware
12:28PM 38.3740 -93.1640 80° East 470 541 35,000 -120 Descending FlightAware
12:29PM 38.3890 -93.0550 80° East 468 539 35,000  Level FlightAware
12:30PM 38.4090 -92.9090 80° East 465 535 35,000  Level FlightAware
12:30PM 38.4230 -92.8060 80° East 464 534 35,000  Level FlightAware
12:31PM 38.4380 -92.6940 80° East 464 534 35,000  Level FlightAware
12:32PM 38.4510 -92.6020 80° East 464 534 35,000  Level FlightAware
12:33PM 38.4640 -92.5100 80° East 464 534 35,000  Level FlightAware
12:33PM 38.4760 -92.4180 81° East 464 534 35,000  Level FlightAware
12:34PM 38.4920 -92.3030 80° East 464 534 35,000  Level FlightAware
12:35PM 38.5050 -92.2120 80° East 464 534 35,000  Level FlightAware
12:35PM 38.5170 -92.1200 81° East 464 534 35,000  Level FlightAware
12:36PM 38.5300 -92.0280 80° East 464 534 35,000  Level FlightAware
12:37PM 38.5430 -91.9360 80° East 464 534 35,000  Level FlightAware
12:38PM 38.5580 -91.8210 80° East 464 534 35,000  Level FlightAware
12:38PM 38.5710 -91.7290 80° East 464 534 35,000  Level FlightAware
12:39PM 38.5840 -91.6370 80° East 464 534 35,000  Level FlightAware
12:40PM 38.5960 -91.5450 80° East 464 534 35,000  Level FlightAware
12:40PM 38.6270 -91.2070 83° East 460 529 35,000  Level FlightAware
12:41PM 38.6400 -91.0990 81° East 460 529 35,000  Level FlightAware
12:42PM 38.6540 -90.9730 82° East 459 528 35,000  Level FlightAware
12:42PM 38.6640 -90.8870 82° East 459 528 35,000  Level FlightAware
12:43PM 38.6780 -90.7750 81° East 459 528 35,000  Level FlightAware
12:44PM 38.6920 -90.6470 82° East 455 524 35,000  Level FlightAware
12:44PM 38.7050 -90.5350 82° East 455 524 35,000  Level FlightAware
12:45PM 38.7180 -90.4310 81° East 455 524 35,000  Level FlightAware
12:46PM 38.7300 -90.3110 83° East 455 524 35,000  Level FlightAware
12:47PM 38.7420 -90.2090 81° East 456 525 35,000  Level FlightAware
12:47PM 38.7520 -90.1180 82° East 456 525 35,000  Level FlightAware
12:48PM 38.7680 -89.9730 82° East 459 528 35,000  Level FlightAware
12:49PM 38.7810 -89.8520 82° East 460 529 35,000  Level FlightAware
12:49PM 38.7930 -89.7420 82° East 460 529 35,000 60 Level FlightAware
12:50PM 38.8030 -89.6440 83° East 460 529 35,100 60 Climbing FlightAware
12:51PM 38.8200 -89.4880 82° East 460 529 35,100 -120 Level FlightAware
12:52PM 38.8310 -89.3840 82° East 455 524 35,000 -1,020 Descending FlightAware
12:52PM 38.8420 -89.2660 83° East 458 527 33,800 -1,440 Descending FlightAware
12:53PM 38.8410 -89.1350 91° East 462 532 32,900 -1,200 Descending FlightAware
12:54PM 38.8440 -89.0260 88° East 461 531 32,100 -1,200 Descending FlightAware
12:54PM 38.8600 -88.9160 79° East 462 532 31,300 -1,200 Descending FlightAware
12:55PM 38.8780 -88.7820 80° East 470 541 30,300 -1,200 Descending FlightAware
12:56PM 38.8930 -88.6750 80° East 474 545 29,500 -1,140 Descending FlightAware
12:57PM 38.9110 -88.5520 79° East 482 555 28,700 -1,440 Descending FlightAware
12:57PM 38.9270 -88.4360 80° East 486 559 27,500 -1,800 Descending FlightAware
12:58PM 38.9410 -88.3230 81° East 474 545 26,300 -1,800 Descending FlightAware
12:59PM 38.9560 -88.1990 81° East 469 540 25,000 -1,680 Descending FlightAware
12:59PM 38.9690 -88.0940 81° East 474 545 24,000 -1,140 Descending FlightAware
01:00PM 38.9950 -87.9630 76° East 473 544 23,400 -1,140 Descending FlightAware
01:01PM 39.0290 -87.8600 67° East 470 541 22,400 -900 Descending FlightAware
01:02PM 39.0790 -87.7070 67° East 468 539 21,900 -1,080 Descending FlightAware
01:03PM 39.1180 -87.5870 67° East 446 513 20,500 -1,080 Descending FlightAware
01:04PM 39.1650 -87.4510 66° East 447 514 20,100 -900 Descending FlightAware
01:04PM 39.1960 -87.3500 68° East 439 505 19,100 -1,200 Descending FlightAware
01:05PM 39.2270 -87.2550 67° East 431 496 18,500 -1,020 Descending FlightAware
01:06PM 39.2610 -87.1490 67° East 422 486 17,700 -1,020 Descending FlightAware
01:06PM 39.2920 -87.0530 67° East 401 461 17,100 -420 Descending FlightAware
01:07PM 39.3210 -86.9630 67° East 401 461 17,100 -960 Level FlightAware
01:08PM 39.3500 -86.8750 67° East 374 430 15,800 -1,080 Descending FlightAware
01:08PM 39.3720 -86.8100 66° East 374 430 15,800  Level FlightAware
01:09PM 39.4020 -86.7240 66° East 374 430 15,800  Level FlightAware
01:10PM 39.4260 -86.6540 66° East 374 430 15,800  Level FlightAware
01:11PM 39.4500 -86.5840 66° East 374 430 15,800  Level FlightAware
01:11PM 39.4740 -86.5150 66° East 374 430 15,800 -5,220 Level FlightAware
01:12PM 39.5500 -86.4667 66° East 287 330 9,400 -7,440 Descending Indianapolis TRACON
01:12PM 39.5639 -86.4436 52° Northeast 306 352 8,900 -1,380 Descending Indianapolis Center
01:13PM 39.6039 -86.3500 61° Northeast 297 342 7,500 -900 Descending Indianapolis Center
01:14PM 39.6408 -86.2600 62° Northeast 290 334 7,100 -540 Descending Indianapolis Center
01:15PM 39.6869 -86.1800 53° Northeast 284 327 6,400 -720 Descending Indianapolis Center
01:16PM 39.7450 -86.1128 42° Northeast 271 312 5,700 -1,560 Descending Indianapolis Center
01:18PM 39.7833 -86.2000 300° West 180 207 2,700 -1,800 Descending Indianapolis TRACON
01:18PM 39.7667 -86.2333 237° Southwest 147 169 1,900 -840 Descending Indianapolis TRACON
01:20PM 39.7333 -86.2667 218° Southwest 130 150 1,200 -660 Descending Indianapolis TRACON